sensor_id;sensor_type;location;lat;lon;timestamp;P1;durP1;ratioP1;P2;durP2;ratioP2
27357;SDS011;14831;50.474;7.616;2022-12-07T00:04:21;2.6;;;2.4;;
27357;SDS011;14831;50.474;7.616;2022-12-07T00:09:21;2.6;;;2.4;;
27357;SDS011;14831;50.474;7.616;2022-12-07T00:14:21;2.6;;;2.4;;
27357;SDS011;14831;50.474;7.616;2022-12-07T00:19:21;2.6;;;2.4;;
27357;SDS011;14831;50.474;7.616;2022-12-07T00:24:21;2.2;;;2.0;;
27357;SDS011;14831;50.474;7.616;2022-12-07T00:29:21;2.2;;;2.0;;
27357;SDS011;14831;50.474;7.616;2022-12-07T00:34:21;2.2;;;2.0;;
27357;SDS011;14831;50.474;7.616;2022-12-07T00:39:22;2.2;;;2.0;;
27357;SDS011;14831;50.474;7.616;2022-12-07T00:44:21;2.2;;;2.0;;
27357;SDS011;14831;50.474;7.616;2022-12-07T00:49:21;2.2;;;2.0;;
27357;SDS011;14831;50.474;7.616;2022-12-07T00:54:22;2.6;;;2.3;;
27357;SDS011;14831;50.474;7.616;2022-12-07T00:59:21;2.6;;;2.3;;
27357;SDS011;14831;50.474;7.616;2022-12-07T01:04:21;2.6;;;2.3;;
27357;SDS011;14831;50.474;7.616;2022-12-07T01:09:21;2.6;;;2.3;;
27357;SDS011;14831;50.474;7.616;2022-12-07T01:14:21;2.6;;;2.3;;
27357;SDS011;14831;50.474;7.616;2022-12-07T01:19:21;2.6;;;2.3;;
27357;SDS011;14831;50.474;7.616;2022-12-07T01:24:22;2.0;;;1.8;;
27357;SDS011;14831;50.474;7.616;2022-12-07T01:29:21;2.0;;;1.8;;
27357;SDS011;14831;50.474;7.616;2022-12-07T01:34:21;2.0;;;1.8;;
27357;SDS011;14831;50.474;7.616;2022-12-07T01:39:21;2.0;;;1.8;;
27357;SDS011;14831;50.474;7.616;2022-12-07T01:44:23;2.0;;;1.8;;
27357;SDS011;14831;50.474;7.616;2022-12-07T01:49:28;2.0;;;1.8;;
27357;SDS011;14831;50.474;7.616;2022-12-07T01:54:21;2.0;;;1.9;;
27357;SDS011;14831;50.474;7.616;2022-12-07T01:59:23;2.0;;;1.9;;
27357;SDS011;14831;50.474;7.616;2022-12-07T02:04:21;2.0;;;1.9;;
27357;SDS011;14831;50.474;7.616;2022-12-07T02:09:21;2.0;;;1.9;;
27357;SDS011;14831;50.474;7.616;2022-12-07T02:14:21;2.0;;;1.9;;
27357;SDS011;14831;50.474;7.616;2022-12-07T02:19:45;2.0;;;1.9;;
27357;SDS011;14831;50.474;7.616;2022-12-07T02:24:35;1.7;;;1.6;;
27357;SDS011;14831;50.474;7.616;2022-12-07T02:29:23;1.7;;;1.6;;
27357;SDS011;14831;50.474;7.616;2022-12-07T02:34:28;1.7;;;1.6;;
27357;SDS011;14831;50.474;7.616;2022-12-07T02:39:27;1.7;;;1.6;;
27357;SDS011;14831;50.474;7.616;2022-12-07T02:44:24;1.7;;;1.6;;
27357;SDS011;14831;50.474;7.616;2022-12-07T02:49:22;1.7;;;1.6;;
27357;SDS011;14831;50.474;7.616;2022-12-07T02:54:21;2.0;;;1.8;;
27357;SDS011;14831;50.474;7.616;2022-12-07T02:59:32;2.0;;;1.8;;
27357;SDS011;14831;50.474;7.616;2022-12-07T03:04:34;2.0;;;1.8;;
27357;SDS011;14831;50.474;7.616;2022-12-07T03:09:28;2.0;;;1.8;;
27357;SDS011;14831;50.474;7.616;2022-12-07T03:14:24;2.0;;;1.8;;
27357;SDS011;14831;50.474;7.616;2022-12-07T03:19:24;2.0;;;1.8;;
27357;SDS011;14831;50.474;7.616;2022-12-07T03:24:25;1.7;;;1.6;;
27357;SDS011;14831;50.474;7.616;2022-12-07T03:29:25;1.7;;;1.6;;
27357;SDS011;14831;50.474;7.616;2022-12-07T03:34:26;1.7;;;1.6;;
27357;SDS011;14831;50.474;7.616;2022-12-07T03:39:25;1.7;;;1.6;;
27357;SDS011;14831;50.474;7.616;2022-12-07T03:44:22;1.7;;;1.6;;
27357;SDS011;14831;50.474;7.616;2022-12-07T03:49:24;1.7;;;1.6;;
27357;SDS011;14831;50.474;7.616;2022-12-07T03:54:24;1.7;;;1.6;;
27357;SDS011;14831;50.474;7.616;2022-12-07T03:59:22;1.7;;;1.6;;
27357;SDS011;14831;50.474;7.616;2022-12-07T04:04:22;1.7;;;1.6;;
27357;SDS011;14831;50.474;7.616;2022-12-07T04:09:21;1.7;;;1.6;;
27357;SDS011;14831;50.474;7.616;2022-12-07T04:14:21;1.7;;;1.6;;
27357;SDS011;14831;50.474;7.616;2022-12-07T04:19:24;1.7;;;1.6;;
27357;SDS011;14831;50.474;7.616;2022-12-07T04:24:21;1.8;;;1.7;;
27357;SDS011;14831;50.474;7.616;2022-12-07T04:29:21;1.8;;;1.7;;
27357;SDS011;14831;50.474;7.616;2022-12-07T04:34:21;1.8;;;1.7;;
27357;SDS011;14831;50.474;7.616;2022-12-07T04:39:24;1.8;;;1.7;;
27357;SDS011;14831;50.474;7.616;2022-12-07T04:44:22;1.8;;;1.7;;
27357;SDS011;14831;50.474;7.616;2022-12-07T04:49:21;1.8;;;1.7;;
27357;SDS011;14831;50.474;7.616;2022-12-07T04:54:21;1.3;;;1.2;;
27357;SDS011;14831;50.474;7.616;2022-12-07T04:59:21;1.3;;;1.2;;
27357;SDS011;14831;50.474;7.616;2022-12-07T05:04:21;1.3;;;1.2;;
27357;SDS011;14831;50.474;7.616;2022-12-07T05:09:21;1.3;;;1.2;;
27357;SDS011;14831;50.474;7.616;2022-12-07T05:14:21;1.3;;;1.2;;
27357;SDS011;14831;50.474;7.616;2022-12-07T05:19:21;1.3;;;1.2;;
27357;SDS011;14831;50.474;7.616;2022-12-07T05:24:21;1.5;;;1.4;;
27357;SDS011;14831;50.474;7.616;2022-12-07T05:29:21;1.5;;;1.4;;
27357;SDS011;14831;50.474;7.616;2022-12-07T05:34:22;1.5;;;1.4;;
27357;SDS011;14831;50.474;7.616;2022-12-07T05:39:21;1.5;;;1.4;;
27357;SDS011;14831;50.474;7.616;2022-12-07T05:44:21;1.5;;;1.4;;
27357;SDS011;14831;50.474;7.616;2022-12-07T05:49:21;1.5;;;1.4;;
27357;SDS011;14831;50.474;7.616;2022-12-07T05:54:21;1.4;;;1.3;;
27357;SDS011;14831;50.474;7.616;2022-12-07T05:59:21;1.4;;;1.3;;
27357;SDS011;14831;50.474;7.616;2022-12-07T06:04:22;1.4;;;1.3;;
27357;SDS011;14831;50.474;7.616;2022-12-07T06:09:24;1.4;;;1.3;;
27357;SDS011;14831;50.474;7.616;2022-12-07T06:14:21;1.4;;;1.3;;
27357;SDS011;14831;50.474;7.616;2022-12-07T06:19:21;1.4;;;1.3;;
27357;SDS011;14831;50.474;7.616;2022-12-07T06:24:21;1.5;;;1.4;;
27357;SDS011;14831;50.474;7.616;2022-12-07T06:29:21;1.5;;;1.4;;
27357;SDS011;14831;50.474;7.616;2022-12-07T06:34:22;1.5;;;1.4;;
27357;SDS011;14831;50.474;7.616;2022-12-07T06:39:23;1.5;;;1.4;;
27357;SDS011;14831;50.474;7.616;2022-12-07T06:44:22;1.5;;;1.4;;
27357;SDS011;14831;50.474;7.616;2022-12-07T06:49:21;1.5;;;1.4;;
27357;SDS011;14831;50.474;7.616;2022-12-07T06:54:21;1.4;;;1.3;;
27357;SDS011;14831;50.474;7.616;2022-12-07T06:59:21;1.4;;;1.3;;
27357;SDS011;14831;50.474;7.616;2022-12-07T07:04:21;1.4;;;1.3;;
27357;SDS011;14831;50.474;7.616;2022-12-07T07:09:21;1.4;;;1.3;;
27357;SDS011;14831;50.474;7.616;2022-12-07T07:14:21;1.4;;;1.3;;
27357;SDS011;14831;50.474;7.616;2022-12-07T07:19:21;1.4;;;1.3;;
27357;SDS011;14831;50.474;7.616;2022-12-07T07:24:21;1.6;;;1.5;;
27357;SDS011;14831;50.474;7.616;2022-12-07T07:29:21;1.6;;;1.5;;
27357;SDS011;14831;50.474;7.616;2022-12-07T07:34:21;1.6;;;1.5;;
27357;SDS011;14831;50.474;7.616;2022-12-07T07:39:21;1.6;;;1.5;;
27357;SDS011;14831;50.474;7.616;2022-12-07T07:44:21;1.6;;;1.5;;
27357;SDS011;14831;50.474;7.616;2022-12-07T07:49:21;1.6;;;1.5;;
27357;SDS011;14831;50.474;7.616;2022-12-07T07:54:21;1.6;;;1.3;;
27357;SDS011;14831;50.474;7.616;2022-12-07T07:59:21;1.6;;;1.3;;
27357;SDS011;14831;50.474;7.616;2022-12-07T08:04:21;1.6;;;1.3;;
27357;SDS011;14831;50.474;7.616;2022-12-07T08:09:21;1.6;;;1.3;;
27357;SDS011;14831;50.474;7.616;2022-12-07T08:14:21;1.6;;;1.3;;
27357;SDS011;14831;50.474;7.616;2022-12-07T08:19:21;1.6;;;1.3;;
27357;SDS011;14831;50.474;7.616;2022-12-07T08:24:21;4.6;;;1.3;;
27357;SDS011;14831;50.474;7.616;2022-12-07T08:29:21;4.6;;;1.3;;
27357;SDS011;14831;50.474;7.616;2022-12-07T08:34:21;4.6;;;1.3;;
27357;SDS011;14831;50.474;7.616;2022-12-07T08:39:21;4.6;;;1.3;;
27357;SDS011;14831;50.474;7.616;2022-12-07T08:44:21;4.6;;;1.3;;
27357;SDS011;14831;50.474;7.616;2022-12-07T08:49:25;4.6;;;1.3;;
27357;SDS011;14831;50.474;7.616;2022-12-07T08:54:21;1.8;;;1.4;;
27357;SDS011;14831;50.474;7.616;2022-12-07T08:59:22;1.8;;;1.4;;
27357;SDS011;14831;50.474;7.616;2022-12-07T09:04:21;1.8;;;1.4;;
27357;SDS011;14831;50.474;7.616;2022-12-07T09:09:21;1.8;;;1.4;;
27357;SDS011;14831;50.474;7.616;2022-12-07T09:14:21;1.8;;;1.4;;
27357;SDS011;14831;50.474;7.616;2022-12-07T09:19:21;1.8;;;1.4;;
27357;SDS011;14831;50.474;7.616;2022-12-07T09:24:21;2.2;;;1.4;;
27357;SDS011;14831;50.474;7.616;2022-12-07T09:29:21;2.2;;;1.4;;
27357;SDS011;14831;50.474;7.616;2022-12-07T09:34:21;2.2;;;1.4;;
27357;SDS011;14831;50.474;7.616;2022-12-07T09:39:21;2.2;;;1.4;;
27357;SDS011;14831;50.474;7.616;2022-12-07T09:44:23;2.2;;;1.4;;
27357;SDS011;14831;50.474;7.616;2022-12-07T09:49:22;2.2;;;1.4;;
27357;SDS011;14831;50.474;7.616;2022-12-07T09:54:21;2.3;;;1.7;;
27357;SDS011;14831;50.474;7.616;2022-12-07T09:59:21;2.3;;;1.7;;
27357;SDS011;14831;50.474;7.616;2022-12-07T10:04:23;2.3;;;1.7;;
27357;SDS011;14831;50.474;7.616;2022-12-07T10:09:22;2.3;;;1.7;;
27357;SDS011;14831;50.474;7.616;2022-12-07T10:14:21;2.3;;;1.7;;
27357;SDS011;14831;50.474;7.616;2022-12-07T10:19:25;2.3;;;1.7;;
27357;SDS011;14831;50.474;7.616;2022-12-07T10:24:22;2.1;;;1.9;;
27357;SDS011;14831;50.474;7.616;2022-12-07T10:29:23;2.1;;;1.9;;
27357;SDS011;14831;50.474;7.616;2022-12-07T10:34:24;2.1;;;1.9;;
27357;SDS011;14831;50.474;7.616;2022-12-07T10:39:22;2.1;;;1.9;;
27357;SDS011;14831;50.474;7.616;2022-12-07T10:44:23;2.1;;;1.9;;
27357;SDS011;14831;50.474;7.616;2022-12-07T10:49:52;2.1;;;1.9;;
27357;SDS011;14831;50.474;7.616;2022-12-07T10:54:27;3.0;;;2.5;;
27357;SDS011;14831;50.474;7.616;2022-12-07T10:59:42;3.0;;;2.5;;
27357;SDS011;14831;50.474;7.616;2022-12-07T11:04:26;3.0;;;2.5;;
27357;SDS011;14831;50.474;7.616;2022-12-07T11:09:36;3.0;;;2.5;;
27357;SDS011;14831;50.474;7.616;2022-12-07T11:14:26;3.0;;;2.5;;
27357;SDS011;14831;50.474;7.616;2022-12-07T11:19:32;3.0;;;2.5;;
27357;SDS011;14831;50.474;7.616;2022-12-07T11:24:27;2.7;;;1.9;;
27357;SDS011;14831;50.474;7.616;2022-12-07T11:29:48;2.7;;;1.9;;
27357;SDS011;14831;50.474;7.616;2022-12-07T11:34:25;2.7;;;1.9;;
27357;SDS011;14831;50.474;7.616;2022-12-07T11:39:26;2.7;;;1.9;;
27357;SDS011;14831;50.474;7.616;2022-12-07T11:44:30;2.7;;;1.9;;
27357;SDS011;14831;50.474;7.616;2022-12-07T11:49:27;2.7;;;1.9;;
27357;SDS011;14831;50.474;7.616;2022-12-07T11:54:24;1.7;;;1.6;;
27357;SDS011;14831;50.474;7.616;2022-12-07T11:59:25;1.7;;;1.6;;
27357;SDS011;14831;50.474;7.616;2022-12-07T12:04:31;1.7;;;1.6;;
27357;SDS011;14831;50.474;7.616;2022-12-07T12:09:26;1.7;;;1.6;;
27357;SDS011;14831;50.474;7.616;2022-12-07T12:14:31;1.7;;;1.6;;
27357;SDS011;14831;50.474;7.616;2022-12-07T12:19:27;1.7;;;1.6;;
27357;SDS011;14831;50.474;7.616;2022-12-07T12:24:23;2.1;;;1.4;;
27357;SDS011;14831;50.474;7.616;2022-12-07T12:29:26;2.1;;;1.4;;
27357;SDS011;14831;50.474;7.616;2022-12-07T12:34:32;2.1;;;1.4;;
27357;SDS011;14831;50.474;7.616;2022-12-07T12:39:21;2.1;;;1.4;;
27357;SDS011;14831;50.474;7.616;2022-12-07T12:44:40;2.1;;;1.4;;
27357;SDS011;14831;50.474;7.616;2022-12-07T12:49:38;2.1;;;1.4;;
27357;SDS011;14831;50.474;7.616;2022-12-07T12:54:23;4.4;;;3.0;;
27357;SDS011;14831;50.474;7.616;2022-12-07T12:59:25;4.4;;;3.0;;
27357;SDS011;14831;50.474;7.616;2022-12-07T13:04:51;4.4;;;3.0;;
27357;SDS011;14831;50.474;7.616;2022-12-07T13:09:24;4.4;;;3.0;;
27357;SDS011;14831;50.474;7.616;2022-12-07T13:14:56;4.4;;;3.0;;
27357;SDS011;14831;50.474;7.616;2022-12-07T13:19:53;4.4;;;3.0;;
27357;SDS011;14831;50.474;7.616;2022-12-07T13:24:21;5.6;;;3.3;;
27357;SDS011;14831;50.474;7.616;2022-12-07T13:29:21;5.6;;;3.3;;
27357;SDS011;14831;50.474;7.616;2022-12-07T13:34:31;5.6;;;3.3;;
27357;SDS011;14831;50.474;7.616;2022-12-07T13:39:22;5.6;;;3.3;;
27357;SDS011;14831;50.474;7.616;2022-12-07T13:44:22;5.6;;;3.3;;
27357;SDS011;14831;50.474;7.616;2022-12-07T13:49:24;5.6;;;3.3;;
27357;SDS011;14831;50.474;7.616;2022-12-07T13:54:22;2.9;;;2.6;;
27357;SDS011;14831;50.474;7.616;2022-12-07T13:59:23;2.9;;;2.6;;
27357;SDS011;14831;50.474;7.616;2022-12-07T14:04:37;2.9;;;2.6;;
27357;SDS011;14831;50.474;7.616;2022-12-07T14:09:23;2.9;;;2.6;;
27357;SDS011;14831;50.474;7.616;2022-12-07T14:14:23;2.9;;;2.6;;
27357;SDS011;14831;50.474;7.616;2022-12-07T14:19:41;2.9;;;2.6;;
27357;SDS011;14831;50.474;7.616;2022-12-07T14:24:21;2.8;;;2.2;;
27357;SDS011;14831;50.474;7.616;2022-12-07T14:29:30;2.8;;;2.2;;
27357;SDS011;14831;50.474;7.616;2022-12-07T14:34:22;2.8;;;2.2;;
27357;SDS011;14831;50.474;7.616;2022-12-07T14:39:21;2.8;;;2.2;;
27357;SDS011;14831;50.474;7.616;2022-12-07T14:44:22;2.8;;;2.2;;
27357;SDS011;14831;50.474;7.616;2022-12-07T14:49:21;2.8;;;2.2;;
27357;SDS011;14831;50.474;7.616;2022-12-07T14:54:26;3.4;;;2.1;;
27357;SDS011;14831;50.474;7.616;2022-12-07T14:59:21;3.4;;;2.1;;
27357;SDS011;14831;50.474;7.616;2022-12-07T15:04:21;3.4;;;2.1;;
27357;SDS011;14831;50.474;7.616;2022-12-07T15:09:21;3.4;;;2.1;;
27357;SDS011;14831;50.474;7.616;2022-12-07T15:14:21;3.4;;;2.1;;
27357;SDS011;14831;50.474;7.616;2022-12-07T15:19:23;3.4;;;2.1;;
27357;SDS011;14831;50.474;7.616;2022-12-07T15:24:21;2.8;;;2.4;;
27357;SDS011;14831;50.474;7.616;2022-12-07T15:29:21;2.8;;;2.4;;
27357;SDS011;14831;50.474;7.616;2022-12-07T15:34:22;2.8;;;2.4;;
27357;SDS011;14831;50.474;7.616;2022-12-07T15:39:21;2.8;;;2.4;;
27357;SDS011;14831;50.474;7.616;2022-12-07T15:44:21;2.8;;;2.4;;
27357;SDS011;14831;50.474;7.616;2022-12-07T15:49:21;2.8;;;2.4;;
27357;SDS011;14831;50.474;7.616;2022-12-07T15:54:23;4.1;;;2.7;;
27357;SDS011;14831;50.474;7.616;2022-12-07T15:59:21;4.1;;;2.7;;
27357;SDS011;14831;50.474;7.616;2022-12-07T16:04:21;4.1;;;2.7;;
27357;SDS011;14831;50.474;7.616;2022-12-07T16:09:21;4.1;;;2.7;;
27357;SDS011;14831;50.474;7.616;2022-12-07T16:14:21;4.1;;;2.7;;
27357;SDS011;14831;50.474;7.616;2022-12-07T16:19:21;4.1;;;2.7;;
27357;SDS011;14831;50.474;7.616;2022-12-07T16:24:21;4.5;;;2.8;;
27357;SDS011;14831;50.474;7.616;2022-12-07T16:29:22;4.5;;;2.8;;
27357;SDS011;14831;50.474;7.616;2022-12-07T16:34:21;4.5;;;2.8;;
27357;SDS011;14831;50.474;7.616;2022-12-07T16:39:21;4.5;;;2.8;;
27357;SDS011;14831;50.474;7.616;2022-12-07T16:44:21;4.5;;;2.8;;
27357;SDS011;14831;50.474;7.616;2022-12-07T16:49:21;4.5;;;2.8;;
27357;SDS011;14831;50.474;7.616;2022-12-07T16:54:21;3.9;;;2.8;;
27357;SDS011;14831;50.474;7.616;2022-12-07T16:59:21;3.9;;;2.8;;
27357;SDS011;14831;50.474;7.616;2022-12-07T17:04:21;3.9;;;2.8;;
27357;SDS011;14831;50.474;7.616;2022-12-07T17:09:21;3.9;;;2.8;;
27357;SDS011;14831;50.474;7.616;2022-12-07T17:14:21;3.9;;;2.8;;
27357;SDS011;14831;50.474;7.616;2022-12-07T17:19:21;3.9;;;2.8;;
27357;SDS011;14831;50.474;7.616;2022-12-07T17:24:21;4.2;;;3.0;;
27357;SDS011;14831;50.474;7.616;2022-12-07T17:29:21;4.2;;;3.0;;
27357;SDS011;14831;50.474;7.616;2022-12-07T17:34:21;4.2;;;3.0;;
27357;SDS011;14831;50.474;7.616;2022-12-07T17:39:21;4.2;;;3.0;;
27357;SDS011;14831;50.474;7.616;2022-12-07T17:44:21;4.2;;;3.0;;
27357;SDS011;14831;50.474;7.616;2022-12-07T17:49:21;4.2;;;3.0;;
27357;SDS011;14831;50.474;7.616;2022-12-07T17:54:21;4.5;;;3.1;;
27357;SDS011;14831;50.474;7.616;2022-12-07T17:59:21;4.5;;;3.1;;
27357;SDS011;14831;50.474;7.616;2022-12-07T18:04:21;4.5;;;3.1;;
27357;SDS011;14831;50.474;7.616;2022-12-07T18:09:21;4.5;;;3.1;;
27357;SDS011;14831;50.474;7.616;2022-12-07T18:14:21;4.5;;;3.1;;
27357;SDS011;14831;50.474;7.616;2022-12-07T18:19:21;4.5;;;3.1;;
27357;SDS011;14831;50.474;7.616;2022-12-07T18:24:21;2.8;;;2.6;;
27357;SDS011;14831;50.474;7.616;2022-12-07T18:29:21;2.8;;;2.6;;
27357;SDS011;14831;50.474;7.616;2022-12-07T18:34:21;2.8;;;2.6;;
27357;SDS011;14831;50.474;7.616;2022-12-07T18:39:21;2.8;;;2.6;;
27357;SDS011;14831;50.474;7.616;2022-12-07T18:44:21;2.8;;;2.6;;
27357;SDS011;14831;50.474;7.616;2022-12-07T18:49:21;2.8;;;2.6;;
27357;SDS011;14831;50.474;7.616;2022-12-07T18:54:21;3.8;;;2.8;;
27357;SDS011;14831;50.474;7.616;2022-12-07T18:59:21;3.8;;;2.8;;
27357;SDS011;14831;50.474;7.616;2022-12-07T19:04:21;3.8;;;2.8;;
27357;SDS011;14831;50.474;7.616;2022-12-07T19:09:21;3.8;;;2.8;;
27357;SDS011;14831;50.474;7.616;2022-12-07T19:14:24;3.8;;;2.8;;
27357;SDS011;14831;50.474;7.616;2022-12-07T19:19:23;3.8;;;2.8;;
27357;SDS011;14831;50.474;7.616;2022-12-07T19:24:21;3.0;;;2.7;;
27357;SDS011;14831;50.474;7.616;2022-12-07T19:29:21;3.0;;;2.7;;
27357;SDS011;14831;50.474;7.616;2022-12-07T19:34:21;3.0;;;2.7;;
27357;SDS011;14831;50.474;7.616;2022-12-07T19:39:21;3.0;;;2.7;;
27357;SDS011;14831;50.474;7.616;2022-12-07T19:44:23;3.0;;;2.7;;
27357;SDS011;14831;50.474;7.616;2022-12-07T19:49:23;3.0;;;2.7;;
27357;SDS011;14831;50.474;7.616;2022-12-07T19:54:24;3.6;;;2.7;;
27357;SDS011;14831;50.474;7.616;2022-12-07T19:59:23;3.6;;;2.7;;
27357;SDS011;14831;50.474;7.616;2022-12-07T20:04:23;3.6;;;2.7;;
27357;SDS011;14831;50.474;7.616;2022-12-07T20:09:22;3.6;;;2.7;;
27357;SDS011;14831;50.474;7.616;2022-12-07T20:14:22;3.6;;;2.7;;
27357;SDS011;14831;50.474;7.616;2022-12-07T20:19:21;3.6;;;2.7;;
27357;SDS011;14831;50.474;7.616;2022-12-07T20:24:23;2.7;;;2.4;;
27357;SDS011;14831;50.474;7.616;2022-12-07T20:29:23;2.7;;;2.4;;
27357;SDS011;14831;50.474;7.616;2022-12-07T20:34:21;2.7;;;2.4;;
27357;SDS011;14831;50.474;7.616;2022-12-07T20:39:21;2.7;;;2.4;;
27357;SDS011;14831;50.474;7.616;2022-12-07T20:44:21;2.7;;;2.4;;
27357;SDS011;14831;50.474;7.616;2022-12-07T20:49:21;2.7;;;2.4;;
27357;SDS011;14831;50.474;7.616;2022-12-07T20:54:21;2.6;;;2.4;;
27357;SDS011;14831;50.474;7.616;2022-12-07T20:59:21;2.6;;;2.4;;
27357;SDS011;14831;50.474;7.616;2022-12-07T21:04:21;2.6;;;2.4;;
27357;SDS011;14831;50.474;7.616;2022-12-07T21:09:21;2.6;;;2.4;;
27357;SDS011;14831;50.474;7.616;2022-12-07T21:14:21;2.6;;;2.4;;
27357;SDS011;14831;50.474;7.616;2022-12-07T21:19:21;2.6;;;2.4;;
27357;SDS011;14831;50.474;7.616;2022-12-07T21:24:21;2.4;;;2.2;;
27357;SDS011;14831;50.474;7.616;2022-12-07T21:29:21;2.4;;;2.2;;
27357;SDS011;14831;50.474;7.616;2022-12-07T21:34:21;2.4;;;2.2;;
27357;SDS011;14831;50.474;7.616;2022-12-07T21:39:21;2.4;;;2.2;;
27357;SDS011;14831;50.474;7.616;2022-12-07T21:44:21;2.4;;;2.2;;
27357;SDS011;14831;50.474;7.616;2022-12-07T21:49:21;2.4;;;2.2;;
27357;SDS011;14831;50.474;7.616;2022-12-07T21:54:21;2.6;;;2.2;;
27357;SDS011;14831;50.474;7.616;2022-12-07T21:59:21;2.6;;;2.2;;
27357;SDS011;14831;50.474;7.616;2022-12-07T22:04:23;2.6;;;2.2;;
27357;SDS011;14831;50.474;7.616;2022-12-07T22:09:21;2.6;;;2.2;;
27357;SDS011;14831;50.474;7.616;2022-12-07T22:14:21;2.6;;;2.2;;
27357;SDS011;14831;50.474;7.616;2022-12-07T22:19:21;2.6;;;2.2;;
27357;SDS011;14831;50.474;7.616;2022-12-07T22:24:21;2.6;;;2.4;;
27357;SDS011;14831;50.474;7.616;2022-12-07T22:29:21;2.6;;;2.4;;
27357;SDS011;14831;50.474;7.616;2022-12-07T22:34:21;2.6;;;2.4;;
27357;SDS011;14831;50.474;7.616;2022-12-07T22:39:21;2.6;;;2.4;;
27357;SDS011;14831;50.474;7.616;2022-12-07T22:44:21;2.6;;;2.4;;
27357;SDS011;14831;50.474;7.616;2022-12-07T22:49:21;2.6;;;2.4;;
27357;SDS011;14831;50.474;7.616;2022-12-07T22:54:21;2.1;;;2.0;;
27357;SDS011;14831;50.474;7.616;2022-12-07T22:59:21;2.1;;;2.0;;
27357;SDS011;14831;50.474;7.616;2022-12-07T23:04:21;2.1;;;2.0;;
27357;SDS011;14831;50.474;7.616;2022-12-07T23:09:21;2.1;;;2.0;;
27357;SDS011;14831;50.474;7.616;2022-12-07T23:14:24;2.1;;;2.0;;
27357;SDS011;14831;50.474;7.616;2022-12-07T23:19:21;2.1;;;2.0;;
27357;SDS011;14831;50.474;7.616;2022-12-07T23:24:21;2.1;;;2.0;;
27357;SDS011;14831;50.474;7.616;2022-12-07T23:29:21;2.1;;;2.0;;
27357;SDS011;14831;50.474;7.616;2022-12-07T23:34:21;2.1;;;2.0;;
27357;SDS011;14831;50.474;7.616;2022-12-07T23:39:21;2.1;;;2.0;;
27357;SDS011;14831;50.474;7.616;2022-12-07T23:44:21;2.1;;;2.0;;
27357;SDS011;14831;50.474;7.616;2022-12-07T23:49:21;2.1;;;2.0;;
27357;SDS011;14831;50.474;7.616;2022-12-07T23:54:21;2.0;;;1.8;;
27357;SDS011;14831;50.474;7.616;2022-12-07T23:59:21;2.0;;;1.8;;
